Time;durP1;ratioP1;P1;durP2;ratioP2;P2;SDS_P1;SDS_P2;PMS_P1;PMS_P2;Temp;Humidity;BMP_temperature;BMP_pressure;BME280_temperature;BME280_humidity;BME280_pressure;Samples;Min_cycle;Max_cycle;Signal;HPM_P1;HPM_P2
2023/05/24 00:00:11;;;;;;;8.37;4.57;;;7.80;1.00;;;;;;5037923;28;20455;-58
2023/05/24 00:02:40;;;;;;;10.40;4.47;;;7.80;1.00;;;;;;5038141;28;20474;-58
2023/05/24 00:05:09;;;;;;;10.00;4.40;;;7.70;1.00;;;;;;5037398;28;20561;-59
2023/05/24 00:07:38;;;;;;;9.07;3.90;;;7.70;1.00;;;;;;5037609;28;20466;-59
2023/05/24 00:10:06;;;;;;;10.33;4.23;;;7.60;6.20;;;;;;5037691;28;20442;-58
2023/05/24 00:12:33;;;;;;;9.63;4.03;;;7.60;90.90;;;;;;5037622;28;20477;-59
2023/05/24 00:15:01;;;;;;;11.50;4.37;;;7.60;67.90;;;;;;5037930;28;20468;-58
2023/05/24 00:17:29;;;;;;;7.17;4.40;;;7.50;99.90;;;;;;5037499;28;20463;-59
2023/05/24 00:19:56;;;;;;;10.60;3.80;;;7.50;54.50;;;;;;5037391;28;20906;-58
2023/05/24 00:22:23;;;;;;;13.83;4.10;;;7.40;96.20;;;;;;5037296;28;20463;-59
2023/05/24 00:24:52;;;;;;;9.40;4.10;;;7.40;99.90;;;;;;5038044;28;20505;-58
2023/05/24 00:27:19;;;;;;;8.53;4.00;;;7.30;99.90;;;;;;5036917;28;20463;-58
2023/05/24 00:29:46;;;;;;;12.40;3.93;;;7.30;99.90;;;;;;5037078;28;20462;-58
2023/05/24 00:32:13;;;;;;;11.53;5.03;;;7.20;99.90;;;;;;5037672;28;20518;-58
2023/05/24 00:34:40;;;;;;;8.40;3.87;;;7.20;99.90;;;;;;5037460;28;20470;-58
2023/05/24 00:37:08;;;;;;;10.30;3.80;;;7.20;99.90;;;;;;5037331;28;20442;-58
2023/05/24 00:39:35;;;;;;;9.90;4.70;;;7.20;99.90;;;;;;5037048;28;20473;-58
2023/05/24 00:42:04;;;;;;;13.83;3.70;;;7.20;99.90;;;;;;5036943;28;20459;-58
2023/05/24 00:44:31;;;;;;;9.13;4.17;;;7.10;99.90;;;;;;5037572;28;20830;-58
2023/05/24 00:46:59;;;;;;;17.00;4.67;;;7.20;99.90;;;;;;5037209;28;20809;-59
2023/05/24 00:49:26;;;;;;;12.23;4.00;;;7.10;99.90;;;;;;5036650;28;20449;-59
2023/05/24 00:51:54;;;;;;;6.77;4.50;;;7.10;99.90;;;;;;5036919;28;20502;-59
2023/05/24 00:54:21;;;;;;;9.40;4.40;;;7.00;99.90;;;;;;5037320;28;20911;-58
2023/05/24 00:56:49;;;;;;;12.47;4.43;;;7.00;99.90;;;;;;5037043;28;20441;-58
2023/05/24 00:59:17;;;;;;;12.13;3.77;;;6.90;99.90;;;;;;5037170;28;20434;-59
2023/05/24 01:01:45;;;;;;;13.50;4.80;;;6.90;99.90;;;;;;5036648;28;20459;-59
2023/05/24 01:04:13;;;;;;;11.47;4.57;;;6.80;99.90;;;;;;5036844;28;20853;-59
2023/05/24 01:06:49;;;;;;;14.80;4.10;;;6.80;99.90;;;;;;5036577;28;20757;-59
2023/05/24 01:09:25;;;;;;;5.90;3.87;;;6.80;1.00;;;;;;5037649;28;20466;-58
2023/05/24 01:12:05;;;;;;;8.90;3.53;;;6.80;99.90;;;;;;5041053;28;20495;-59
2023/05/24 01:14:41;;;;;;;10.20;4.33;;;6.80;99.90;;;;;;5041365;28;20465;-59
2023/05/24 01:17:15;;;;;;;12.87;4.93;;;6.80;1.00;;;;;;5041369;28;20448;-59
2023/05/24 01:19:54;;;;;;;11.00;3.90;;;6.70;1.00;;;;;;5040547;28;20550;-59
2023/05/24 01:23:06;;;;;;;15.50;5.30;;;6.60;99.90;;;;;;5040858;28;20481;-58
2023/05/24 01:26:16;;;;;;;12.03;4.47;;;6.50;1.00;;;;;;5004074;28;20467;-58
2023/05/24 01:28:46;;;;;;;7.70;4.17;;;6.50;1.00;;;;;;5035986;28;20510;-59
2023/05/24 01:31:14;;;;;;;15.03;4.77;;;6.40;99.90;;;;;;5040715;28;20499;-59
2023/05/24 01:33:42;;;;;;;10.97;5.10;;;6.40;1.00;;;;;;5040491;28;20470;-58
2023/05/24 01:36:10;;;;;;;9.53;4.27;;;6.40;1.00;;;;;;5040596;28;20549;-58
2023/05/24 01:38:37;;;;;;;10.80;5.73;;;6.30;1.00;;;;;;5040936;28;20884;-59
2023/05/24 01:41:15;;;;;;;8.50;4.27;;;6.30;50.40;;;;;;5040477;28;20466;-59
2023/05/24 01:43:50;;;;;;;7.77;3.90;;;6.40;39.40;;;;;;5040529;28;20467;-59
2023/05/24 01:46:24;;;;;;;12.63;4.27;;;6.30;1.00;;;;;;5040508;28;20470;-59
2023/05/24 01:48:59;;;;;;;7.50;4.00;;;6.20;1.00;;;;;;5040643;28;20462;-58
2023/05/24 01:51:32;;;;;;;9.67;4.40;;;6.20;99.90;;;;;;5039814;28;20939;-58
2023/05/24 01:54:01;;;;;;;12.70;4.47;;;6.10;99.90;;;;;;5040160;28;20885;-59
2023/05/24 01:56:29;;;;;;;13.17;4.63;;;6.10;99.90;;;;;;5040569;28;20468;-59
2023/05/24 01:58:59;;;;;;;6.70;3.70;;;6.00;1.00;;;;;;5040261;28;20469;-60
2023/05/24 02:01:27;;;;;;;9.40;4.30;;;6.00;99.90;;;;;;5039609;28;20463;-59
2023/05/24 02:03:55;;;;;;;11.50;4.23;;;6.10;1.00;;;;;;5039805;28;20467;-59
2023/05/24 02:06:22;;;;;;;8.60;4.33;;;6.10;1.00;;;;;;5040276;28;20470;-59
2023/05/24 02:08:51;;;;;;;6.40;3.93;;;6.10;99.90;;;;;;5040123;28;20473;-59
2023/05/24 02:11:18;;;;;;;10.57;4.70;;;6.10;1.00;;;;;;5039510;28;20469;-59
2023/05/24 02:13:45;;;;;;;13.63;4.40;;;6.00;99.90;;;;;;5039792;28;20846;-59
2023/05/24 02:16:13;;;;;;;10.40;4.23;;;6.00;99.90;;;;;;5039802;28;20930;-59
2023/05/24 02:18:45;;;;;;;10.60;4.00;;;5.90;19.20;;;;;;5039755;28;20474;-58
2023/05/24 02:21:12;;;;;;;8.63;4.10;;;5.90;65.90;;;;;;5039669;28;20472;-59
2023/05/24 02:23:39;;;;;;;12.57;4.70;;;5.80;1.00;;;;;;5039503;28;20521;-59
2023/05/24 02:26:10;;;;;;;17.17;5.13;;;5.80;99.90;;;;;;5039584;28;20962;-59
2023/05/24 02:28:37;;;;;;;11.30;4.57;;;5.80;99.90;;;;;;5039475;28;20486;-58
2023/05/24 02:31:04;;;;;;;11.97;4.80;;;5.90;1.00;;;;;;5039573;28;21004;-59
2023/05/24 02:33:34;;;;;;;9.77;4.60;;;5.80;99.90;;;;;;5039283;28;20443;-59
2023/05/24 02:36:01;;;;;;;8.77;4.03;;;5.70;99.90;;;;;;5039139;28;20520;-59
2023/05/24 02:38:28;;;;;;;6.40;4.13;;;5.70;1.00;;;;;;5039262;28;20459;-59
2023/05/24 02:40:55;;;;;;;11.07;4.67;;;5.70;34.30;;;;;;5039891;28;20455;-59
2023/05/24 02:43:22;;;;;;;9.53;4.07;;;5.70;99.90;;;;;;5038941;28;20533;-59
2023/05/24 02:45:49;;;;;;;12.90;3.93;;;5.70;99.90;;;;;;5039443;28;20462;-59
2023/05/24 02:48:16;;;;;;;7.80;3.90;;;5.70;99.90;;;;;;5039196;28;20466;-59
2023/05/24 02:50:45;;;;;;;10.10;4.10;;;5.60;1.00;;;;;;5039305;28;20798;-59
2023/05/24 02:53:12;;;;;;;8.83;4.20;;;5.60;99.90;;;;;;5039306;28;20592;-59
2023/05/24 02:55:39;;;;;;;10.20;4.77;;;5.50;1.00;;;;;;5039026;28;20478;-59
2023/05/24 02:58:07;;;;;;;15.70;5.17;;;5.50;1.00;;;;;;5038315;28;20464;-59
2023/05/24 03:00:34;;;;;;;11.30;4.17;;;5.50;83.20;;;;;;5038994;28;20470;-59
2023/05/24 03:03:02;;;;;;;11.90;4.50;;;5.40;99.90;;;;;;5038954;28;20467;-59
2023/05/24 03:05:29;;;;;;;9.10;4.63;;;5.50;99.90;;;;;;5039152;28;20470;-59
2023/05/24 03:07:58;;;;;;;7.93;4.70;;;5.50;1.00;;;;;;5038664;28;20463;-58
2023/05/24 03:10:25;;;;;;;7.30;4.63;;;5.50;61.80;;;;;;5038923;28;20467;-58
2023/05/24 03:12:52;;;;;;;11.20;4.83;;;5.50;86.70;;;;;;5038641;28;20789;-59
2023/05/24 03:15:20;;;;;;;10.30;4.23;;;5.50;1.00;;;;;;5038149;28;20502;-59
2023/05/24 03:17:47;;;;;;;13.40;5.13;;;5.50;15.70;;;;;;5038962;28;20495;-59
2023/05/24 03:20:14;;;;;;;13.23;5.10;;;5.40;1.00;;;;;;5038672;28;20466;-59
2023/05/24 03:22:41;;;;;;;13.07;4.97;;;5.50;1.00;;;;;;5038896;28;20750;-59
2023/05/24 03:25:13;;;;;;;13.10;4.67;;;5.40;1.00;;;;;;5039330;28;20477;-59
2023/05/24 03:27:41;;;;;;;11.70;4.77;;;5.40;1.00;;;;;;5036714;28;20470;-60
2023/05/24 03:30:09;;;;;;;14.43;5.10;;;5.40;1.00;;;;;;5037796;28;20494;-60
2023/05/24 03:32:36;;;;;;;9.83;4.27;;;5.30;1.00;;;;;;5037610;28;20936;-60
2023/05/24 03:35:04;;;;;;;8.27;4.03;;;5.30;1.00;;;;;;5038330;28;20466;-60
2023/05/24 03:37:31;;;;;;;13.57;5.13;;;5.30;99.90;;;;;;5037415;28;20471;-60
2023/05/24 03:39:58;;;;;;;10.63;5.20;;;5.30;1.00;;;;;;5038746;28;20464;-60
2023/05/24 03:42:26;;;;;;;12.70;5.30;;;5.30;99.90;;;;;;5038622;28;20459;-60
2023/05/24 03:44:53;;;;;;;14.63;5.00;;;5.30;99.90;;;;;;5038358;28;20439;-60
2023/05/24 03:47:20;;;;;;;9.97;4.73;;;5.30;99.90;;;;;;5038230;28;20459;-60
2023/05/24 03:49:47;;;;;;;10.80;4.67;;;5.30;99.90;;;;;;5038656;28;20466;-60
2023/05/24 03:52:15;;;;;;;15.27;4.83;;;5.30;1.00;;;;;;5037766;28;20502;-60
2023/05/24 03:54:42;;;;;;;14.80;4.73;;;5.30;99.90;;;;;;5037770;28;20461;-60
2023/05/24 03:57:09;;;;;;;11.40;4.70;;;5.30;1.00;;;;;;5038094;28;20467;-60
2023/05/24 03:59:37;;;;;;;10.30;5.30;;;5.30;25.90;;;;;;5038446;28;20895;-60
2023/05/24 04:02:05;;;;;;;9.70;4.90;;;5.40;99.90;;;;;;5038449;28;20463;-60
2023/05/24 04:04:32;;;;;;;9.23;5.03;;;5.40;99.90;;;;;;5037864;28;20447;-60
2023/05/24 04:07:02;;;;;;;10.47;5.73;;;5.40;99.90;;;;;;5038353;28;20494;-60
2023/05/24 04:09:29;;;;;;;9.80;4.73;;;5.50;99.90;;;;;;5038153;28;20950;-59
2023/05/24 04:11:57;;;;;;;14.63;5.80;;;5.50;99.80;;;;;;5038040;28;20560;-60
2023/05/24 04:14:24;;;;;;;12.27;5.13;;;5.50;1.00;;;;;;5037389;28;20498;-60
2023/05/24 04:16:53;;;;;;;11.37;5.10;;;5.50;99.90;;;;;;5037420;28;20908;-60
2023/05/24 04:19:21;;;;;;;8.60;4.90;;;5.50;99.90;;;;;;5037755;28;20543;-60
2023/05/24 04:21:48;;;;;;;10.50;5.00;;;5.50;99.90;;;;;;5038052;28;20733;-60
2023/05/24 04:24:15;;;;;;;11.30;6.97;;;5.50;1.00;;;;;;5058005;28;20437;-60
2023/05/24 04:26:43;;;;;;;9.43;5.70;;;5.60;1.00;;;;;;5057388;28;20469;-60
2023/05/24 04:29:10;;;;;;;11.33;5.27;;;5.70;1.00;;;;;;5038312;28;20564;-60
2023/05/24 04:31:38;;;;;;;17.20;5.30;;;5.90;1.00;;;;;;5037484;28;20754;-60
2023/05/24 04:34:08;;;;;;;10.80;5.87;;;5.90;30.70;;;;;;5037538;28;20472;-60
2023/05/24 04:36:35;;;;;;;9.13;5.67;;;6.00;99.90;;;;;;5037205;28;20467;-60
2023/05/24 04:39:03;;;;;;;10.00;5.47;;;6.20;56.70;;;;;;5037342;28;20437;-60
2023/05/24 04:41:32;;;;;;;23.00;5.63;;;6.10;99.90;;;;;;5037694;28;20534;-59
2023/05/24 04:43:59;;;;;;;17.10;6.70;;;6.20;99.90;;;;;;5036931;28;20518;-60
2023/05/24 04:46:26;;;;;;;12.20;6.83;;;6.20;99.90;;;;;;5037458;28;20477;-60
2023/05/24 04:48:54;;;;;;;14.83;5.93;;;6.30;1.00;;;;;;5037050;28;20474;-60
2023/05/24 04:51:23;;;;;;;15.80;5.77;;;6.40;1.00;;;;;;5037283;28;20479;-60
2023/05/24 04:53:50;;;;;;;16.57;6.43;;;6.50;1.00;;;;;;5036725;28;20491;-60
2023/05/24 04:56:18;;;;;;;11.27;6.23;;;6.60;1.00;;;;;;5036694;28;20455;-60
2023/05/24 04:58:46;;;;;;;16.10;7.37;;;6.70;1.00;;;;;;5036942;28;20470;-59
2023/05/24 05:01:13;;;;;;;17.80;7.30;;;6.80;21.60;;;;;;5037295;28;20471;-60
2023/05/24 05:03:40;;;;;;;14.20;6.13;;;6.90;1.00;;;;;;5036967;28;20464;-59
2023/05/24 05:06:07;;;;;;;10.57;6.37;;;7.10;99.90;;;;;;5037175;28;20463;-59
2023/05/24 05:08:35;;;;;;;12.63;6.13;;;7.20;99.90;;;;;;5036940;28;20755;-60
2023/05/24 05:11:03;;;;;;;11.63;5.77;;;7.30;97.60;;;;;;5036145;28;20455;-60
2023/05/24 05:13:30;;;;;;;10.20;6.13;;;7.40;99.90;;;;;;5036015;28;20491;-60
2023/05/24 05:15:57;;;;;;;19.07;6.67;;;7.60;99.90;;;;;;5035664;28;20467;-60
2023/05/24 05:18:24;;;;;;;17.00;6.80;;;7.60;1.00;;;;;;5036142;28;20469;-59
2023/05/24 05:20:51;;;;;;;17.50;6.87;;;7.70;99.90;;;;;;5036247;28;20463;-59
2023/05/24 05:23:19;;;;;;;19.53;8.20;;;7.70;99.90;;;;;;5035099;28;20558;-59
2023/05/24 05:25:47;;;;;;;14.60;7.27;;;7.80;99.90;;;;;;5036834;28;20565;-60
2023/05/24 05:28:14;;;;;;;17.33;7.00;;;7.80;3.30;;;;;;5036806;28;20491;-60
2023/05/24 05:30:41;;;;;;;14.33;6.57;;;7.90;1.00;;;;;;5036138;28;20474;-60
2023/05/24 05:33:08;;;;;;;27.07;7.73;;;8.00;99.90;;;;;;5036333;28;20495;-60
2023/05/24 05:35:35;;;;;;;17.37;6.60;;;8.30;99.90;;;;;;5036500;28;20724;-57
2023/05/24 05:38:02;;;;;;;17.87;7.17;;;8.40;72.90;;;;;;5035208;28;20441;-57
2023/05/24 05:40:30;;;;;;;15.97;7.20;;;8.60;1.00;;;;;;5035232;28;20463;-58
2023/05/24 05:42:58;;;;;;;16.20;6.93;;;8.80;1.00;;;;;;5035848;28;20839;-58
2023/05/24 05:45:25;;;;;;;16.90;8.73;;;9.10;93.80;;;;;;5036246;28;20467;-58
2023/05/24 05:47:52;;;;;;;18.57;9.70;;;9.30;99.90;;;;;;5035288;28;20466;-58
2023/05/24 05:50:19;;;;;;;20.27;7.67;;;9.50;1.00;;;;;;5035518;28;20470;-58
2023/05/24 05:52:46;;;;;;;23.50;7.23;;;9.60;99.90;;;;;;5036479;28;20487;-58
2023/05/24 05:55:14;;;;;;;12.60;6.47;;;9.90;16.40;;;;;;5037160;28;20467;-58
2023/05/24 05:57:41;;;;;;;21.60;6.97;;;9.80;95.60;;;;;;5040448;28;20463;-58
2023/05/24 06:00:11;;;;;;;16.80;6.43;;;9.90;99.90;;;;;;5039743;28;20467;-57
2023/05/24 06:02:40;;;;;;;15.17;6.53;;;10.20;99.90;;;;;;5039893;28;20463;-58
2023/05/24 06:05:07;;;;;;;16.17;7.60;;;10.00;59.80;;;;;;5040274;28;20467;-58
2023/05/24 06:07:36;;;;;;;15.10;6.43;;;9.80;99.90;;;;;;5039554;28;20463;-58
2023/05/24 06:10:03;;;;;;;17.40;5.40;;;10.00;1.00;;;;;;5040177;28;20461;-58
2023/05/24 06:12:30;;;;;;;11.40;5.77;;;10.00;1.00;;;;;;5039897;28;20917;-57
2023/05/24 06:14:58;;;;;;;22.37;8.00;;;10.10;1.00;;;;;;5039360;28;20837;-57
2023/05/24 06:17:27;;;;;;;20.57;6.07;;;10.10;1.00;;;;;;5037904;28;20473;-57
2023/05/24 06:19:55;;;;;;;13.33;5.83;;;10.20;1.00;;;;;;5038025;28;20467;-58
2023/05/24 06:22:22;;;;;;;17.40;6.90;;;10.30;1.00;;;;;;5037567;28;20463;-59
2023/05/24 06:24:49;;;;;;;17.93;5.90;;;10.30;99.90;;;;;;5037795;28;20467;-58
2023/05/24 06:27:16;;;;;;;21.67;6.47;;;10.40;99.90;;;;;;5040875;28;20481;-57
2023/05/24 06:29:43;;;;;;;18.77;6.60;;;10.30;99.90;;;;;;5056463;28;20487;-59
2023/05/24 06:32:10;;;;;;;17.13;6.73;;;10.50;99.90;;;;;;5052547;28;20535;-59
2023/05/24 06:34:39;;;;;;;18.53;6.90;;;10.30;99.90;;;;;;5058599;28;20591;-58
2023/05/24 06:37:09;;;;;;;19.30;5.63;;;10.20;99.90;;;;;;5059029;28;20565;-58
2023/05/24 06:39:36;;;;;;;21.50;6.67;;;10.10;99.90;;;;;;5059212;28;20458;-60
2023/05/24 06:42:03;;;;;;;17.70;6.53;;;10.10;99.90;;;;;;5059013;28;20759;-58
2023/05/24 06:44:33;;;;;;;16.00;6.00;;;10.00;99.90;;;;;;5057780;28;20796;-59
2023/05/24 06:47:00;;;;;;;16.03;6.37;;;10.20;99.90;;;;;;5057905;28;20521;-58
2023/05/24 06:49:28;;;;;;;15.60;5.90;;;10.50;99.90;;;;;;5059066;28;20530;-59
2023/05/24 06:51:56;;;;;;;18.67;5.90;;;10.60;99.90;;;;;;5059488;28;20854;-59
2023/05/24 06:54:24;;;;;;;21.60;7.33;;;10.40;1.00;;;;;;5049962;28;20490;-58
2023/05/24 06:56:51;;;;;;;22.77;6.30;;;10.60;99.90;;;;;;5038427;28;20498;-59
2023/05/24 06:59:18;;;;;;;16.70;6.63;;;10.60;99.90;;;;;;5037642;28;20459;-59
2023/05/24 07:01:48;;;;;;;14.73;5.30;;;10.60;99.90;;;;;;5037837;28;20467;-59
2023/05/24 07:04:15;;;;;;;16.30;5.87;;;10.60;99.90;;;;;;5037954;28;20488;-60
2023/05/24 07:06:42;;;;;;;11.10;5.80;;;10.80;99.90;;;;;;5036964;28;20477;-58
2023/05/24 07:09:10;;;;;;;14.00;5.40;;;10.80;99.90;;;;;;5036907;28;20465;-59
2023/05/24 07:11:38;;;;;;;14.60;6.33;;;11.20;99.90;;;;;;5038627;28;20434;-60
2023/05/24 07:14:05;;;;;;;11.67;6.43;;;11.20;99.90;;;;;;5037480;28;20574;-61
2023/05/24 07:16:32;;;;;;;16.27;5.50;;;10.90;99.90;;;;;;5037667;28;20461;-62
2023/05/24 07:18:59;;;;;;;10.60;6.07;;;10.80;99.90;;;;;;5037420;28;20470;-59
2023/05/24 07:21:26;;;;;;;18.00;5.93;;;11.20;99.90;;;;;;5037301;28;20467;-59
2023/05/24 07:23:54;;;;;;;15.13;6.17;;;11.50;99.90;;;;;;5036612;28;20895;-59
2023/05/24 07:26:22;;;;;;;13.47;6.30;;;11.70;99.90;;;;;;5035941;28;20562;-60
2023/05/24 07:28:50;;;;;;;13.57;6.50;;;12.00;99.90;;;;;;5036164;28;20491;-59
2023/05/24 07:31:17;;;;;;;14.77;6.77;;;12.30;99.90;;;;;;5035368;28;20578;-59
2023/05/24 07:33:45;;;;;;;14.17;6.10;;;12.30;18.10;;;;;;5036560;28;20851;-59
2023/05/24 07:36:12;;;;;;;15.37;6.03;;;12.70;54.50;;;;;;5034620;28;20864;-59
2023/05/24 07:38:39;;;;;;;15.37;5.30;;;12.50;31.50;;;;;;5034025;28;20496;-60
2023/05/24 07:41:07;;;;;;;12.50;6.60;;;12.10;22.30;;;;;;5034100;28;20466;-61
2023/05/24 07:43:37;;;;;;;12.30;5.50;;;11.80;99.90;;;;;;5033640;28;20546;-60
2023/05/24 07:46:04;;;;;;;18.93;6.23;;;11.40;53.80;;;;;;5032400;28;20454;-59
2023/05/24 07:48:31;;;;;;;17.50;6.90;;;11.30;99.90;;;;;;5035464;28;20459;-62
2023/05/24 07:50:58;;;;;;;11.93;5.87;;;11.20;93.80;;;;;;5035968;28;20467;-59
2023/05/24 07:53:26;;;;;;;14.17;5.40;;;11.10;99.90;;;;;;5035573;28;20776;-59
2023/05/24 07:55:53;;;;;;;18.00;6.07;;;11.10;99.90;;;;;;5037145;28;20876;-60
2023/05/24 07:58:21;;;;;;;10.63;5.23;;;11.30;54.90;;;;;;5032958;28;20446;-60
2023/05/24 08:00:49;;;;;;;13.00;5.60;;;11.40;67.80;;;;;;5035590;28;20475;-59
2023/05/24 08:03:17;;;;;;;13.70;6.53;;;11.50;96.10;;;;;;5038332;28;20465;-59
2023/05/24 08:05:44;;;;;;;12.90;6.27;;;11.70;36.40;;;;;;5037274;28;20466;-59
2023/05/24 08:08:11;;;;;;;18.07;5.40;;;11.80;41.20;;;;;;5036292;28;20470;-59
2023/05/24 08:10:38;;;;;;;10.60;5.67;;;12.00;38.20;;;;;;5037738;28;20438;-60
2023/05/24 08:13:05;;;;;;;15.17;6.60;;;12.60;53.50;;;;;;5037713;28;20473;-60
2023/05/24 08:15:32;;;;;;;18.27;5.23;;;12.10;26.10;;;;;;5037227;28;20844;-59
2023/05/24 08:18:01;;;;;;;14.00;5.17;;;12.40;9.60;;;;;;5037268;28;20438;-59
2023/05/24 08:20:28;;;;;;;11.73;5.10;;;12.80;99.90;;;;;;5036798;28;20445;-61
2023/05/24 08:22:55;;;;;;;9.53;5.00;;;12.70;99.90;;;;;;5034136;28;20471;-59
2023/05/24 08:25:23;;;;;;;10.33;4.60;;;12.30;44.90;;;;;;5036658;28;20475;-59
2023/05/24 08:27:50;;;;;;;11.43;4.93;;;13.00;1.00;;;;;;5036273;28;20471;-59
2023/05/24 08:30:18;;;;;;;14.60;5.87;;;13.50;1.00;;;;;;5037114;28;20455;-59
2023/05/24 08:32:46;;;;;;;10.37;4.60;;;13.10;1.00;;;;;;5033796;28;20571;-59
2023/05/24 08:35:14;;;;;;;12.20;6.07;;;13.00;1.00;;;;;;5035347;28;20488;-60
2023/05/24 08:37:41;;;;;;;10.13;5.70;;;13.00;1.00;;;;;;5034873;28;20479;-62
2023/05/24 08:40:09;;;;;;;15.20;5.77;;;12.60;1.00;;;;;;5036445;28;20445;-59
2023/05/24 08:42:39;;;;;;;12.40;5.70;;;12.00;1.00;;;;;;5035639;28;20475;-59
2023/05/24 08:45:10;;;;;;;20.93;5.77;;;12.00;1.00;;;;;;5037620;28;20441;-59
2023/05/24 08:47:38;;;;;;;16.63;5.63;;;11.80;1.00;;;;;;5037232;28;20569;-59
2023/05/24 08:50:07;;;;;;;18.20;6.70;;;11.90;1.00;;;;;;5036131;28;20521;-60
2023/05/24 08:52:36;;;;;;;13.20;5.63;;;11.90;1.00;;;;;;5017058;28;20757;-59
2023/05/24 08:55:04;;;;;;;10.63;5.40;;;11.90;1.00;;;;;;5016536;28;20966;-60
2023/05/24 08:57:33;;;;;;;14.23;5.20;;;12.20;1.00;;;;;;5017463;28;20464;-60
2023/05/24 09:00:00;;;;;;;16.23;6.90;;;12.30;1.00;;;;;;5017674;28;20468;-59
2023/05/24 09:02:28;;;;;;;11.10;5.37;;;12.00;1.00;;;;;;5016471;28;20550;-59
2023/05/24 09:04:56;;;;;;;16.30;5.30;;;12.20;1.00;;;;;;5017651;28;20451;-59
2023/05/24 09:07:23;;;;;;;15.57;6.43;;;12.10;1.00;;;;;;5017376;28;20563;-59
2023/05/24 09:09:58;;;;;;;12.73;5.27;;;12.50;1.00;;;;;;5017737;28;20539;-59
2023/05/24 09:12:29;;;;;;;12.00;5.23;;;12.80;1.00;;;;;;5017116;28;20459;-60
2023/05/24 09:14:58;;;;;;;13.43;5.37;;;12.90;1.00;;;;;;5015729;28;20966;-60
2023/05/24 09:17:25;;;;;;;11.43;4.87;;;13.20;1.00;;;;;;5015684;28;20456;-60
2023/05/24 09:19:53;;;;;;;11.93;5.87;;;13.40;1.00;;;;;;5015730;28;20443;-60
2023/05/24 09:22:24;;;;;;;10.83;5.20;;;13.10;1.00;;;;;;5016054;28;20894;-60
2023/05/24 09:24:53;;;;;;;10.50;4.70;;;13.60;1.00;;;;;;5015380;28;20470;-60
2023/05/24 09:27:22;;;;;;;11.17;5.40;;;14.00;99.90;;;;;;5016034;28;20438;-61
2023/05/24 09:29:50;;;;;;;15.17;5.20;;;13.60;1.00;;;;;;5017475;28;20469;-60
2023/05/24 09:32:20;;;;;;;11.67;5.83;;;13.20;1.00;;;;;;5021568;28;20460;-62
2023/05/24 09:34:48;;;;;;;12.23;5.30;;;12.80;37.30;;;;;;5020850;28;20492;-61
2023/05/24 09:37:16;;;;;;;10.40;5.60;;;12.60;1.00;;;;;;5021073;28;20463;-61
2023/05/24 09:39:44;;;;;;;9.77;5.43;;;12.60;1.00;;;;;;5019766;28;20793;-60
2023/05/24 09:42:19;;;;;;;12.33;5.43;;;13.00;1.00;;;;;;5019728;28;20482;-60
2023/05/24 09:44:47;;;;;;;16.90;6.73;;;13.20;1.00;;;;;;5019528;28;20463;-62
2023/05/24 09:47:15;;;;;;;10.30;5.10;;;13.40;1.00;;;;;;5029526;28;20465;-61
2023/05/24 09:49:42;;;;;;;14.17;6.50;;;13.50;1.00;;;;;;5060420;28;20466;-62
2023/05/24 09:52:13;;;;;;;13.10;5.37;;;13.50;1.00;;;;;;5054450;28;20459;-61
2023/05/24 09:54:41;;;;;;;20.00;5.90;;;13.50;1.00;;;;;;5039975;28;20927;-61
2023/05/24 09:57:10;;;;;;;10.43;5.50;;;13.10;1.00;;;;;;5040588;28;20884;-61
2023/05/24 09:59:41;;;;;;;10.07;5.43;;;12.70;1.00;;;;;;5039419;28;20518;-63
2023/05/24 10:02:10;;;;;;;12.33;6.87;;;12.50;1.00;;;;;;5037672;28;20498;-62
2023/05/24 10:04:38;;;;;;;11.33;6.03;;;12.20;1.00;;;;;;5038588;28;20473;-62
2023/05/24 10:07:06;;;;;;;14.67;6.30;;;11.90;1.00;;;;;;5038999;28;20463;-61
2023/05/24 10:09:34;;;;;;;13.57;5.93;;;11.90;1.00;;;;;;5038512;28;20465;-62
2023/05/24 10:12:05;;;;;;;7.90;5.80;;;11.80;1.00;;;;;;5038712;28;20537;-62
2023/05/24 10:14:35;;;;;;;16.70;6.57;;;12.00;99.70;;;;;;5039507;28;20550;-62
2023/05/24 10:17:05;;;;;;;10.87;6.00;;;12.10;1.00;;;;;;5040133;28;20467;-62
2023/05/24 10:19:32;;;;;;;9.70;5.30;;;12.30;1.00;;;;;;5040096;28;20467;-61
2023/05/24 10:22:02;;;;;;;13.93;6.03;;;12.30;1.00;;;;;;5040145;28;20462;-62
2023/05/24 10:24:33;;;;;;;16.40;6.57;;;12.50;1.00;;;;;;5039203;28;20485;-61
2023/05/24 10:27:03;;;;;;;16.17;6.60;;;12.90;1.00;;;;;;5039506;28;20474;-61
2023/05/24 10:29:52;;;;;;;15.30;6.63;;;13.30;1.00;;;;;;5039629;28;20466;-62
2023/05/24 10:32:24;;;;;;;13.00;5.90;;;13.70;1.00;;;;;;5039865;28;20448;-61
2023/05/24 10:34:52;;;;;;;12.70;5.70;;;14.00;1.00;;;;;;5038785;28;20495;-61
2023/05/24 10:37:20;;;;;;;10.60;5.90;;;14.00;1.00;;;;;;5039766;28;20467;-62
2023/05/24 10:39:47;;;;;;;10.50;6.30;;;13.70;1.00;;;;;;5039715;28;20473;-61
2023/05/24 10:42:16;;;;;;;16.33;6.47;;;13.10;1.00;;;;;;5038083;28;20463;-61
2023/05/24 10:44:43;;;;;;;11.77;6.00;;;13.40;1.00;;;;;;5037159;28;20467;-61
2023/05/24 10:47:12;;;;;;;13.60;7.03;;;13.70;4.90;;;;;;5037441;28;20467;-61
2023/05/24 10:49:50;;;;;;;12.03;8.23;;;14.10;11.10;;;;;;5037551;28;20463;-62
2023/05/24 10:52:17;;;;;;;12.40;5.70;;;14.90;30.70;;;;;;5037524;28;20466;-62
2023/05/24 10:55:03;;;;;;;10.10;5.30;;;15.20;1.00;;;;;;5037121;28;20495;-62
2023/05/24 10:57:32;;;;;;;15.40;4.90;;;15.40;1.00;;;;;;5036571;28;20558;-62
2023/05/24 11:00:26;;;;;;;11.60;5.50;;;14.80;1.00;;;;;;5036120;28;20450;-62
2023/05/24 11:03:01;;;;;;;13.47;6.47;;;13.90;1.00;;;;;;5037298;28;20474;-62
2023/05/24 11:05:35;;;;;;;11.90;5.40;;;13.70;58.50;;;;;;5038256;28;20465;-62
2023/05/24 11:08:02;;;;;;;10.80;5.07;;;13.80;56.70;;;;;;5038482;28;20935;-62
2023/05/24 11:10:33;;;;;;;11.87;6.30;;;13.90;99.90;;;;;;5037484;28;20508;-62
2023/05/24 11:13:02;;;;;;;12.73;5.40;;;14.00;99.90;;;;;;5038023;28;20726;-62
2023/05/24 11:15:30;;;;;;;14.33;5.83;;;13.90;99.90;;;;;;5037952;28;20557;-62
2023/05/24 11:18:16;;;;;;;12.30;5.23;;;13.50;99.90;;;;;;5037020;28;20470;-61
2023/05/24 11:20:45;;;;;;;14.33;5.73;;;13.30;51.70;;;;;;5037959;28;20494;-62
2023/05/24 11:23:14;;;;;;;14.20;5.57;;;13.10;92.10;;;;;;5037504;28;20980;-62
2023/05/24 11:25:41;;;;;;;14.07;5.80;;;13.00;99.90;;;;;;5037625;28;20885;-62
2023/05/24 11:28:10;;;;;;;9.30;5.10;;;13.30;99.90;;;;;;5037604;28;20557;-62
2023/05/24 11:30:40;;;;;;;13.10;5.47;;;13.20;13.40;;;;;;5037335;28;20919;-62
2023/05/24 11:33:14;;;;;;;11.37;4.77;;;13.30;1.00;;;;;;5037054;28;20456;-62
2023/05/24 11:35:42;;;;;;;15.73;5.40;;;13.50;38.00;;;;;;5037842;28;20491;-62
2023/05/24 11:38:13;;;;;;;14.10;6.37;;;13.50;19.70;;;;;;5037972;28;20947;-62
2023/05/24 11:40:43;;;;;;;11.70;4.60;;;13.50;1.00;;;;;;5037566;28;20466;-61
2023/05/24 11:43:13;;;;;;;19.03;7.07;;;13.90;1.00;;;;;;5034939;28;20475;-62
2023/05/24 11:45:42;;;;;;;11.23;5.40;;;14.20;1.00;;;;;;5037183;28;20877;-61
2023/05/24 11:48:10;;;;;;;11.50;5.70;;;14.50;1.00;;;;;;5038287;28;20521;-61
2023/05/24 11:50:41;;;;;;;13.37;5.90;;;14.30;1.00;;;;;;5038051;28;20481;-61
2023/05/24 11:53:12;;;;;;;13.20;6.17;;;14.50;1.00;;;;;;5036415;28;20458;-62
2023/05/24 11:55:40;;;;;;;11.00;5.00;;;14.90;1.00;;;;;;5038741;28;20788;-62
2023/05/24 11:58:14;;;;;;;10.83;4.87;;;15.30;1.00;;;;;;5037773;28;20459;-62
2023/05/24 12:00:43;;;;;;;17.03;5.30;;;15.70;1.00;;;;;;5038239;28;20731;-62
2023/05/24 12:03:10;;;;;;;11.93;4.97;;;15.50;1.00;;;;;;5038303;28;20503;-61
2023/05/24 12:05:37;;;;;;;15.40;5.50;;;15.20;1.00;;;;;;5037649;28;20455;-61
2023/05/24 12:08:06;;;;;;;11.23;6.00;;;15.10;1.00;;;;;;5038278;28;20467;-64
2023/05/24 12:10:37;;;;;;;12.97;5.70;;;14.80;1.00;;;;;;5037013;28;20493;-64
2023/05/24 12:13:05;;;;;;;9.90;5.70;;;14.60;4.20;;;;;;5037151;28;20557;-65
2023/05/24 12:15:33;;;;;;;9.80;4.63;;;14.00;99.90;;;;;;5036195;28;20882;-64
2023/05/24 12:18:00;;;;;;;10.97;5.10;;;14.10;99.90;;;;;;5036818;28;20469;-64
2023/05/24 12:20:28;;;;;;;14.03;5.90;;;14.10;99.90;;;;;;5036342;28;20451;-64
2023/05/24 12:22:56;;;;;;;12.13;5.77;;;14.00;99.90;;;;;;5035743;28;20470;-64
2023/05/24 12:25:25;;;;;;;11.20;6.70;;;13.80;99.90;;;;;;5036668;28;20554;-64
2023/05/24 12:27:55;;;;;;;12.03;6.10;;;13.60;99.90;;;;;;5034874;28;20469;-63
2023/05/24 12:30:24;;;;;;;12.53;5.43;;;13.80;99.90;;;;;;5035178;28;20751;-61
2023/05/24 12:32:53;;;;;;;18.13;5.53;;;14.10;99.90;;;;;;5033553;28;20542;-61
2023/05/24 12:35:21;;;;;;;14.00;5.67;;;14.30;99.90;;;;;;5033514;28;20494;-61
2023/05/24 12:37:48;;;;;;;10.70;5.83;;;14.40;99.90;;;;;;5033787;28;20455;-61
2023/05/24 12:40:19;;;;;;;10.93;5.30;;;14.30;99.90;;;;;;5034955;28;20470;-61
2023/05/24 12:42:48;;;;;;;10.83;5.93;;;14.40;91.20;;;;;;5035269;28;21024;-61
2023/05/24 12:45:21;;;;;;;14.60;6.17;;;14.30;21.50;;;;;;5035492;28;20463;-61
2023/05/24 12:47:50;;;;;;;13.90;5.50;;;14.10;1.00;;;;;;5037722;28;20463;-61
2023/05/24 12:50:18;;;;;;;11.07;6.27;;;14.30;46.90;;;;;;5036824;28;20876;-62
2023/05/24 12:52:46;;;;;;;15.37;6.90;;;14.30;18.40;;;;;;5036660;28;20741;-62
2023/05/24 12:55:14;;;;;;;13.77;6.33;;;14.20;72.40;;;;;;5037108;28;20939;-62